Time;durP1;ratioP1;P1;durP2;ratioP2;P2;SDS_P1;SDS_P2;PMS_P1;PMS_P2;Temp;Humidity;BMP_temperature;BMP_pressure;BME280_temperature;BME280_humidity;BME280_pressure;Samples;Min_cycle;Max_cycle;Signal;HPM_P1;HPM_P2
2022/12/14 00:01:11;;;;;;;11.70;8.10;;;;;;;;;;5054080;28;20236;-82
2022/12/14 00:03:38;;;;;;;11.67;7.77;;;;;;;;;;5054630;28;20209;-83
2022/12/14 00:06:13;;;;;;;10.80;7.97;;;;;;;;;;5053793;28;20236;-82
2022/12/14 00:08:40;;;;;;;16.07;8.03;;;;;;;;;;5054442;28;20617;-83
2022/12/14 00:11:08;;;;;;;13.70;9.40;;;;;;;;;;5053860;28;20612;-83
2022/12/14 00:13:36;;;;;;;11.17;7.93;;;;;;;;;;5054717;28;20202;-82
2022/12/14 00:16:07;;;;;;;11.83;8.53;;;;;;;;;;5053801;28;20232;-83
2022/12/14 00:18:34;;;;;;;10.30;8.10;;;;;;;;;;5054038;28;20236;-83
2022/12/14 00:21:05;;;;;;;11.40;8.63;;;;;;;;;;5053750;28;20241;-82
2022/12/14 00:23:32;;;;;;;13.83;8.23;;;;;;;;;;5053800;28;20205;-82
2022/12/14 00:26:00;;;;;;;11.03;7.83;;;;;;;;;;5053732;28;20230;-82
2022/12/14 00:28:28;;;;;;;11.87;8.07;;;;;;;;;;5053589;28;20229;-82
2022/12/14 00:30:58;;;;;;;14.13;8.90;;;;;;;;;;5053734;28;20619;-82
2022/12/14 00:33:25;;;;;;;10.03;7.63;;;;;;;;;;5054195;28;20212;-82
2022/12/14 00:35:52;;;;;;;11.30;7.70;;;;;;;;;;5053814;28;20246;-82
2022/12/14 00:38:19;;;;;;;13.97;8.47;;;;;;;;;;5053664;28;20720;-82
2022/12/14 00:40:46;;;;;;;10.57;8.00;;;;;;;;;;5053309;28;20239;-82
2022/12/14 00:43:13;;;;;;;13.97;8.90;;;;;;;;;;5054370;28;20210;-83
2022/12/14 00:45:43;;;;;;;16.03;9.10;;;;;;;;;;5052784;28;20230;-83
2022/12/14 00:48:11;;;;;;;11.97;8.57;;;;;;;;;;5054082;28;20232;-82
2022/12/14 00:50:38;;;;;;;10.60;7.57;;;;;;;;;;5053553;28;20241;-82
2022/12/14 00:53:05;;;;;;;11.43;8.07;;;;;;;;;;5053837;28;20224;-82
2022/12/14 00:55:32;;;;;;;10.10;7.77;;;;;;;;;;5053357;28;20233;-82
2022/12/14 00:57:59;;;;;;;15.97;7.97;;;;;;;;;;5053493;28;20205;-82
2022/12/14 01:00:26;;;;;;;10.90;8.23;;;;;;;;;;5053040;28;20377;-82
2022/12/14 01:02:54;;;;;;;12.73;8.90;;;;;;;;;;5053576;28;20209;-82
2022/12/14 01:05:21;;;;;;;11.80;8.83;;;;;;;;;;5053210;28;20229;-83
2022/12/14 01:07:48;;;;;;;11.50;8.77;;;;;;;;;;5053264;28;20198;-82
2022/12/14 01:10:15;;;;;;;10.67;8.37;;;;;;;;;;5052561;28;20201;-83
2022/12/14 01:12:42;;;;;;;14.13;8.23;;;;;;;;;;5053081;28;20201;-82
2022/12/14 01:15:10;;;;;;;11.30;8.90;;;;;;;;;;5053276;28;20695;-83
2022/12/14 01:17:37;;;;;;;10.90;8.60;;;;;;;;;;5053020;28;20677;-82
2022/12/14 01:20:06;;;;;;;9.23;6.23;;;;;;;;;;5051946;28;20708;-83
2022/12/14 01:22:33;;;;;;;10.60;8.33;;;;;;;;;;5053333;28;20700;-83
2022/12/14 01:25:01;;;;;;;15.43;9.10;;;;;;;;;;5053367;28;20572;-82
2022/12/14 01:27:28;;;;;;;11.90;8.87;;;;;;;;;;5052747;28;20228;-82
2022/12/14 01:29:55;;;;;;;12.77;7.63;;;;;;;;;;5052683;28;20235;-83
2022/12/14 01:32:22;;;;;;;14.53;8.93;;;;;;;;;;5052304;28;20234;-83
2022/12/14 01:34:50;;;;;;;16.37;8.00;;;;;;;;;;5052958;28;20210;-82
2022/12/14 01:37:18;;;;;;;12.03;8.00;;;;;;;;;;5052377;28;20230;-82
2022/12/14 01:39:45;;;;;;;15.73;8.33;;;;;;;;;;5052307;28;20233;-82
2022/12/14 01:42:13;;;;;;;13.40;8.40;;;;;;;;;;5051507;28;20322;-83
2022/12/14 01:44:54;;;;;;;10.27;8.57;;;;;;;;;;5053033;28;20603;-82
2022/12/14 01:47:23;;;;;;;10.80;7.47;;;;;;;;;;5052282;28;20225;-82
2022/12/14 01:49:52;;;;;;;14.43;8.23;;;;;;;;;;5052738;28;20615;-82
2022/12/14 01:52:24;;;;;;;11.23;8.03;;;;;;;;;;5052018;28;20236;-82
2022/12/14 01:54:54;;;;;;;10.03;8.37;;;;;;;;;;5052598;28;20657;-83
2022/12/14 01:57:24;;;;;;;10.97;8.53;;;;;;;;;;5050769;28;20577;-83
2022/12/14 01:59:51;;;;;;;9.87;8.30;;;;;;;;;;5052109;28;20226;-82
2022/12/14 02:02:19;;;;;;;14.07;8.77;;;;;;;;;;5050603;28;20226;-83
2022/12/14 02:04:51;;;;;;;11.30;7.80;;;;;;;;;;5052213;28;20220;-83
2022/12/14 02:07:18;;;;;;;10.57;8.03;;;;;;;;;;5048766;28;20382;-83
2022/12/14 02:09:47;;;;;;;9.70;7.57;;;;;;;;;;5057284;28;20222;-82
2022/12/14 02:12:16;;;;;;;11.17;8.17;;;;;;;;;;5051703;28;20256;-83
2022/12/14 02:14:44;;;;;;;11.97;8.27;;;;;;;;;;5052076;28;20202;-83
2022/12/14 02:17:12;;;;;;;11.33;8.20;;;;;;;;;;5051612;28;20271;-83
2022/12/14 02:19:40;;;;;;;9.57;7.20;;;;;;;;;;5051779;28;20237;-82
2022/12/14 02:22:17;;;;;;;11.07;8.43;;;;;;;;;;5051577;28;20309;-82
2022/12/14 02:25:02;;;;;;;10.90;7.77;;;;;;;;;;5052057;28;20200;-83
2022/12/14 02:27:41;;;;;;;11.83;8.47;;;;;;;;;;5051832;28;20218;-82
2022/12/14 02:30:11;;;;;;;10.97;8.20;;;;;;;;;;5051241;28;20665;-82
2022/12/14 02:32:50;;;;;;;12.30;7.57;;;;;;;;;;5052013;28;20202;-83
2022/12/14 02:35:19;;;;;;;10.10;7.70;;;;;;;;;;5051797;28;20560;-82
2022/12/14 02:37:53;;;;;;;11.23;8.13;;;;;;;;;;5051636;28;20208;-82
2022/12/14 02:40:23;;;;;;;12.93;8.17;;;;;;;;;;5051650;28;20210;-80
2022/12/14 02:42:56;;;;;;;8.40;6.17;;;;;;;;;;5051836;28;20220;-81
2022/12/14 02:45:26;;;;;;;12.47;7.53;;;;;;;;;;5050600;28;20237;-81
2022/12/14 02:47:55;;;;;;;10.23;8.00;;;;;;;;;;5051321;28;20197;-80
2022/12/14 02:50:24;;;;;;;14.33;8.53;;;;;;;;;;5051551;28;20221;-81
2022/12/14 02:52:56;;;;;;;12.00;7.30;;;;;;;;;;5051953;28;20289;-80
2022/12/14 02:55:26;;;;;;;11.27;8.20;;;;;;;;;;5051146;28;20244;-80
2022/12/14 02:57:56;;;;;;;14.07;8.23;;;;;;;;;;5051474;28;20195;-81
2022/12/14 03:00:24;;;;;;;11.93;7.83;;;;;;;;;;5050559;28;20246;-81
2022/12/14 03:02:53;;;;;;;13.20;8.33;;;;;;;;;;5051767;28;20558;-81
2022/12/14 03:05:20;;;;;;;11.27;8.20;;;;;;;;;;5050789;28;20701;-80
2022/12/14 03:07:48;;;;;;;10.87;8.10;;;;;;;;;;5050965;28;20208;-80
2022/12/14 03:10:20;;;;;;;9.60;7.23;;;;;;;;;;5050737;28;20205;-81
2022/12/14 03:12:50;;;;;;;14.47;8.73;;;;;;;;;;5051842;28;20196;-81
2022/12/14 03:15:19;;;;;;;11.10;9.27;;;;;;;;;;5050837;28;20983;-81
2022/12/14 03:17:47;;;;;;;12.83;8.03;;;;;;;;;;5051168;28;20738;-80
2022/12/14 03:20:19;;;;;;;9.90;8.03;;;;;;;;;;5050876;28;20233;-81
2022/12/14 03:22:48;;;;;;;14.23;7.90;;;;;;;;;;5051605;28;20193;-80
2022/12/14 03:25:17;;;;;;;12.57;8.23;;;;;;;;;;5050927;28;20211;-80
2022/12/14 03:27:46;;;;;;;12.30;8.37;;;;;;;;;;5050941;28;20581;-80
2022/12/14 03:30:15;;;;;;;10.40;8.23;;;;;;;;;;5050620;28;20201;-81
2022/12/14 03:32:45;;;;;;;13.17;8.77;;;;;;;;;;5051420;28;20202;-80
2022/12/14 03:35:14;;;;;;;10.47;8.33;;;;;;;;;;5050657;28;20209;-80
2022/12/14 03:37:46;;;;;;;10.57;7.93;;;;;;;;;;5051066;28;20205;-80
2022/12/14 03:40:14;;;;;;;14.43;8.83;;;;;;;;;;5050535;28;20272;-81
2022/12/14 03:42:48;;;;;;;13.43;8.83;;;;;;;;;;5051312;28;20213;-80
2022/12/14 03:45:18;;;;;;;11.60;8.07;;;;;;;;;;5050249;28;20669;-80
2022/12/14 03:47:52;;;;;;;10.80;7.63;;;;;;;;;;5051154;28;20198;-80
2022/12/14 03:50:21;;;;;;;10.90;8.40;;;;;;;;;;5050682;28;20191;-81
2022/12/14 03:52:52;;;;;;;11.93;8.40;;;;;;;;;;5051364;28;20210;-80
2022/12/14 03:55:23;;;;;;;13.67;8.00;;;;;;;;;;5050203;28;20583;-80
2022/12/14 03:57:56;;;;;;;10.33;8.17;;;;;;;;;;5051026;28;20203;-80
2022/12/14 04:00:25;;;;;;;15.93;7.20;;;;;;;;;;5049518;28;20233;-81
2022/12/14 04:02:54;;;;;;;12.00;9.00;;;;;;;;;;5031129;28;20279;-80
2022/12/14 04:05:25;;;;;;;3.80;3.50;;;;;;;;;;5047890;28;20213;-80
2022/12/14 04:07:57;;;;;;;13.07;9.07;;;;;;;;;;5050764;28;20202;-80
2022/12/14 04:18:58;;;;;;;14.87;9.40;;;;;;;;;;5050666;28;20564;-80
2022/12/14 04:21:29;;;;;;;14.47;8.77;;;;;;;;;;5053294;28;20716;-80
2022/12/14 04:26:50;;;;;;;10.60;8.23;;;;;;;;;;5034151;28;20245;-81
2022/12/14 04:32:07;;;;;;;13.83;9.57;;;;;;;;;;5048470;28;20232;-80
2022/12/14 04:34:36;;;;;;;13.27;8.77;;;;;;;;;;5055498;28;20209;-81
2022/12/14 04:37:05;;;;;;;11.00;8.23;;;;;;;;;;5053644;28;20238;-81
2022/12/14 04:39:36;;;;;;;8.17;6.13;;;;;;;;;;5053581;28;20237;-82
2022/12/14 04:42:05;;;;;;;12.63;9.97;;;;;;;;;;5053417;28;20237;-81
2022/12/14 04:44:35;;;;;;;14.50;9.70;;;;;;;;;;5054169;28;20202;-81
2022/12/14 04:47:02;;;;;;;13.33;9.40;;;;;;;;;;5053487;28;20229;-81
2022/12/14 04:49:31;;;;;;;14.63;9.57;;;;;;;;;;5054002;28;20241;-81
2022/12/14 04:52:00;;;;;;;13.33;9.53;;;;;;;;;;5053497;28;20240;-81
2022/12/14 04:54:30;;;;;;;18.27;10.23;;;;;;;;;;5052735;28;20329;-82
2022/12/14 04:57:02;;;;;;;18.60;8.77;;;;;;;;;;5053449;28;20241;-81
2022/12/14 04:59:30;;;;;;;16.30;9.37;;;;;;;;;;5053692;28;20290;-79
2022/12/14 05:02:02;;;;;;;16.10;10.17;;;;;;;;;;5051604;28;20709;-81
2022/12/14 05:04:34;;;;;;;13.77;8.73;;;;;;;;;;5054329;28;20206;-80
2022/12/14 05:07:05;;;;;;;13.97;9.47;;;;;;;;;;5053202;28;20716;-81
2022/12/14 05:09:34;;;;;;;16.40;8.80;;;;;;;;;;5053784;28;20230;-81
2022/12/14 05:12:05;;;;;;;15.27;8.27;;;;;;;;;;5052977;28;20241;-82
2022/12/14 05:14:35;;;;;;;12.33;8.63;;;;;;;;;;5053264;28;20217;-83
2022/12/14 05:17:03;;;;;;;14.13;8.63;;;;;;;;;;5053139;28;20238;-82
2022/12/14 05:19:31;;;;;;;12.47;8.80;;;;;;;;;;5052914;28;20236;-82
2022/12/14 05:21:59;;;;;;;14.23;9.20;;;;;;;;;;5052834;28;20239;-82
2022/12/14 05:24:26;;;;;;;13.03;9.47;;;;;;;;;;5053350;28;20220;-82
2022/12/14 05:26:53;;;;;;;16.00;9.47;;;;;;;;;;5052853;28;20244;-81
2022/12/14 05:29:22;;;;;;;14.00;10.30;;;;;;;;;;5053134;28;20226;-82
2022/12/14 05:31:49;;;;;;;13.77;8.83;;;;;;;;;;5052237;28;20721;-82
2022/12/14 05:34:16;;;;;;;14.27;9.20;;;;;;;;;;5053315;28;20205;-82
2022/12/14 05:36:43;;;;;;;17.83;10.40;;;;;;;;;;5052700;28;20244;-81
2022/12/14 05:39:10;;;;;;;12.47;9.10;;;;;;;;;;5052770;28;20233;-80
2022/12/14 05:41:37;;;;;;;13.03;9.57;;;;;;;;;;5052320;28;20245;-81
2022/12/14 05:44:04;;;;;;;14.63;10.00;;;;;;;;;;5053341;28;20206;-80
2022/12/14 05:46:33;;;;;;;15.67;10.40;;;;;;;;;;5052290;28;20253;-80
2022/12/14 05:49:01;;;;;;;14.90;9.97;;;;;;;;;;5052888;28;20226;-81
2022/12/14 05:51:28;;;;;;;14.30;10.13;;;;;;;;;;5052416;28;20320;-80
2022/12/14 05:53:55;;;;;;;16.13;10.23;;;;;;;;;;5050604;28;20216;-81
2022/12/14 05:56:22;;;;;;;13.70;9.27;;;;;;;;;;5051675;28;20684;-81
2022/12/14 05:58:50;;;;;;;12.10;8.17;;;;;;;;;;5052241;28;20253;-80
2022/12/14 06:01:17;;;;;;;12.43;9.30;;;;;;;;;;5051970;28;20246;-80
2022/12/14 06:03:45;;;;;;;14.07;8.90;;;;;;;;;;5047609;28;20210;-81
2022/12/14 06:06:14;;;;;;;12.27;8.57;;;;;;;;;;5051814;28;20259;-81
2022/12/14 06:08:42;;;;;;;14.60;9.20;;;;;;;;;;5052369;28;20256;-80
2022/12/14 06:11:11;;;;;;;11.27;8.60;;;;;;;;;;5051773;28;20607;-80
2022/12/14 06:13:38;;;;;;;15.77;9.33;;;;;;;;;;5052393;28;20206;-80
2022/12/14 06:16:09;;;;;;;11.77;9.00;;;;;;;;;;5051414;28;20234;-80
2022/12/14 06:18:36;;;;;;;13.53;9.10;;;;;;;;;;5049145;28;20233;-81
2022/12/14 06:21:05;;;;;;;13.90;9.03;;;;;;;;;;5051328;28;20234;-80
2022/12/14 06:23:32;;;;;;;13.90;9.80;;;;;;;;;;5047050;28;20229;-80
2022/12/14 06:25:59;;;;;;;13.43;9.97;;;;;;;;;;5051049;28;20233;-81
2022/12/14 06:28:26;;;;;;;15.93;9.37;;;;;;;;;;5051743;28;20710;-80
2022/12/14 06:30:53;;;;;;;15.30;9.27;;;;;;;;;;5051764;28;20234;-80
2022/12/14 06:33:20;;;;;;;15.97;9.50;;;;;;;;;;5051722;28;20217;-80
2022/12/14 06:35:48;;;;;;;18.43;10.50;;;;;;;;;;5051335;28;20237;-79
2022/12/14 06:38:17;;;;;;;17.33;9.77;;;;;;;;;;5051447;28;20241;-80
2022/12/14 06:40:44;;;;;;;22.37;8.97;;;;;;;;;;5051148;28;20240;-79
2022/12/14 06:43:11;;;;;;;11.50;9.27;;;;;;;;;;5051397;28;20224;-79
2022/12/14 06:45:38;;;;;;;12.73;9.50;;;;;;;;;;5044472;28;20234;-80
2022/12/14 06:48:05;;;;;;;14.57;10.30;;;;;;;;;;5031217;28;20234;-79
2022/12/14 06:50:33;;;;;;;15.20;9.93;;;;;;;;;;5050843;28;20287;-80
2022/12/14 06:53:00;;;;;;;14.00;9.90;;;;;;;;;;5034798;28;20206;-80
2022/12/14 06:55:29;;;;;;;16.90;10.30;;;;;;;;;;5030780;28;20282;-80
2022/12/14 06:57:56;;;;;;;13.90;10.10;;;;;;;;;;5031610;28;20215;-79
2022/12/14 07:00:24;;;;;;;14.00;9.33;;;;;;;;;;5030799;28;20238;-79
2022/12/14 07:02:51;;;;;;;15.30;9.70;;;;;;;;;;5031714;28;20203;-79
2022/12/14 07:05:19;;;;;;;15.53;10.03;;;;;;;;;;5030755;28;20207;-80
2022/12/14 07:07:46;;;;;;;18.73;10.40;;;;;;;;;;5030857;28;20577;-80
2022/12/14 07:10:13;;;;;;;13.83;9.30;;;;;;;;;;5030605;28;20713;-79
2022/12/14 07:12:41;;;;;;;15.20;10.33;;;;;;;;;;5031118;28;20206;-79
2022/12/14 07:15:09;;;;;;;11.83;8.30;;;;;;;;;;5030794;28;20222;-79
2022/12/14 07:17:37;;;;;;;15.20;9.83;;;;;;;;;;5031205;28;20207;-79
2022/12/14 07:20:04;;;;;;;13.27;9.93;;;;;;;;;;5030323;28;20233;-80
2022/12/14 07:22:32;;;;;;;14.87;9.70;;;;;;;;;;5044338;28;20210;-80
2022/12/14 07:24:59;;;;;;;14.20;9.23;;;;;;;;;;5050970;28;20212;-79
2022/12/14 07:27:26;;;;;;;12.60;10.43;;;;;;;;;;5050322;28;20238;-79
2022/12/14 07:29:55;;;;;;;14.77;9.23;;;;;;;;;;5050805;28;20222;-79
2022/12/14 07:32:22;;;;;;;13.20;9.73;;;;;;;;;;5050048;28;20229;-79
2022/12/14 07:34:49;;;;;;;13.33;9.87;;;;;;;;;;5047681;28;20215;-79
2022/12/14 07:37:16;;;;;;;14.73;9.27;;;;;;;;;;5038165;28;20230;-79
2022/12/14 07:39:44;;;;;;;11.77;9.53;;;;;;;;;;5030655;28;20230;-80
2022/12/14 07:42:11;;;;;;;19.20;10.23;;;;;;;;;;5030124;28;20725;-80
2022/12/14 07:44:38;;;;;;;17.57;9.87;;;;;;;;;;5037718;28;20666;-79
2022/12/14 07:47:07;;;;;;;14.33;9.83;;;;;;;;;;5049976;28;20237;-79
2022/12/14 07:49:34;;;;;;;12.17;9.20;;;;;;;;;;5050612;28;20226;-79
2022/12/14 07:52:01;;;;;;;14.10;8.93;;;;;;;;;;5049882;28;20226;-80
2022/12/14 07:54:28;;;;;;;12.97;8.97;;;;;;;;;;5050967;28;20206;-79
2022/12/14 07:56:55;;;;;;;14.90;9.70;;;;;;;;;;5053650;28;20230;-79
2022/12/14 07:59:23;;;;;;;16.53;9.70;;;;;;;;;;5054269;28;20222;-79
2022/12/14 08:01:50;;;;;;;13.43;9.10;;;;;;;;;;5052756;28;20320;-80
2022/12/14 08:04:19;;;;;;;11.53;9.30;;;;;;;;;;5053264;28;20218;-79
2022/12/14 08:06:46;;;;;;;16.23;10.53;;;;;;;;;;5053554;28;20233;-80
2022/12/14 08:09:14;;;;;;;8.07;6.43;;;;;;;;;;5053711;28;20580;-80
2022/12/14 08:11:41;;;;;;;13.83;9.00;;;;;;;;;;5049343;28;20234;-79
2022/12/14 08:14:12;;;;;;;13.80;10.90;;;;;;;;;;5054088;28;20210;-79
2022/12/14 08:16:39;;;;;;;20.57;10.63;;;;;;;;;;5053645;28;20272;-79
2022/12/14 08:19:06;;;;;;;18.43;11.43;;;;;;;;;;5048201;28;20234;-80
2022/12/14 08:21:35;;;;;;;17.53;11.13;;;;;;;;;;5051946;28;20229;-80
2022/12/14 08:24:02;;;;;;;17.63;10.87;;;;;;;;;;5045024;28;20208;-79
2022/12/14 08:26:29;;;;;;;18.40;11.53;;;;;;;;;;5053128;28;20226;-79
2022/12/14 08:28:57;;;;;;;16.77;10.60;;;;;;;;;;5043860;28;20226;-80
2022/12/14 08:31:24;;;;;;;17.17;10.77;;;;;;;;;;5033347;28;20259;-79
2022/12/14 08:33:52;;;;;;;18.87;11.80;;;;;;;;;;5033710;28;20686;-79
2022/12/14 08:36:21;;;;;;;13.33;9.83;;;;;;;;;;5033275;28;20257;-80
2022/12/14 08:38:53;;;;;;;15.87;11.30;;;;;;;;;;5053267;22;20249;-77
2022/12/14 08:41:20;;;;;;;16.77;11.13;;;;;;;;;;5084858;28;20228;-77
2022/12/14 08:43:49;;;;;;;17.77;10.67;;;;;;;;;;5094285;28;20204;-77
2022/12/14 08:46:16;;;;;;;20.90;10.80;;;;;;;;;;5092944;28;20234;-77
2022/12/14 08:48:43;;;;;;;14.63;9.83;;;;;;;;;;5090673;28;20225;-77
2022/12/14 08:51:11;;;;;;;15.60;9.60;;;;;;;;;;5072774;28;20662;-77
2022/12/14 08:53:38;;;;;;;11.40;8.87;;;;;;;;;;5073376;28;20209;-77
2022/12/14 08:56:07;;;;;;;13.50;10.87;;;;;;;;;;5052053;28;20261;-78
2022/12/14 08:58:35;;;;;;;15.40;10.27;;;;;;;;;;5052882;28;20198;-77
2022/12/14 09:01:03;;;;;;;15.87;10.77;;;;;;;;;;5052933;28;20283;-77
2022/12/14 09:03:30;;;;;;;17.63;12.13;;;;;;;;;;5053273;28;20347;-77
2022/12/14 09:05:57;;;;;;;14.27;9.73;;;;;;;;;;5052695;28;20241;-78
2022/12/14 09:08:24;;;;;;;17.93;10.50;;;;;;;;;;5053213;28;20210;-78
2022/12/14 09:10:51;;;;;;;15.50;11.30;;;;;;;;;;5052751;28;20233;-78
2022/12/14 09:13:20;;;;;;;13.87;10.77;;;;;;;;;;5052796;28;20210;-77
2022/12/14 09:15:47;;;;;;;18.87;10.90;;;;;;;;;;5052308;28;20309;-77
2022/12/14 09:18:14;;;;;;;16.50;11.47;;;;;;;;;;5052324;28;20210;-77
2022/12/14 09:20:43;;;;;;;14.10;10.60;;;;;;;;;;5052207;28;20229;-77
2022/12/14 09:23:10;;;;;;;18.30;10.83;;;;;;;;;;5052387;28;20209;-77
2022/12/14 09:25:38;;;;;;;15.70;11.00;;;;;;;;;;5052512;28;20241;-77
2022/12/14 09:28:05;;;;;;;15.87;11.47;;;;;;;;;;5052606;28;20202;-77
2022/12/14 09:30:34;;;;;;;15.33;10.47;;;;;;;;;;5052246;28;20229;-77
2022/12/14 09:33:01;;;;;;;15.83;10.63;;;;;;;;;;5052368;28;20663;-77
2022/12/14 09:35:28;;;;;;;20.23;11.13;;;;;;;;;;5052142;28;20626;-78
2022/12/14 09:37:55;;;;;;;17.60;10.87;;;;;;;;;;5052360;28;20608;-78
2022/12/14 09:40:24;;;;;;;14.90;10.27;;;;;;;;;;5051585;28;21243;-78
2022/12/14 09:42:56;;;;;;;13.30;9.90;;;;;;;;;;5052291;28;20226;-78
2022/12/14 09:45:26;;;;;;;14.27;10.13;;;;;;;;;;5050125;28;20245;-78
2022/12/14 09:47:58;;;;;;;15.30;10.90;;;;;;;;;;5051971;28;20674;-78
2022/12/14 09:50:26;;;;;;;14.67;10.83;;;;;;;;;;5051492;28;20242;-78
2022/12/14 09:52:54;;;;;;;17.60;10.30;;;;;;;;;;5052470;28;20217;-78
2022/12/14 09:55:25;;;;;;;13.97;9.70;;;;;;;;;;5051371;28;20210;-78
2022/12/14 09:57:54;;;;;;;16.53;10.77;;;;;;;;;;5051876;28;20211;-78
2022/12/14 10:00:21;;;;;;;16.30;9.90;;;;;;;;;;5050955;28;20237;-78
2022/12/14 10:02:56;;;;;;;16.80;10.20;;;;;;;;;;5051906;28;20252;-78
2022/12/14 10:05:38;;;;;;;18.20;10.77;;;;;;;;;;5051256;28;20229;-78
2022/12/14 10:08:08;;;;;;;15.40;9.40;;;;;;;;;;5051509;28;20225;-78
2022/12/14 10:10:40;;;;;;;13.77;9.83;;;;;;;;;;5051493;28;20579;-78
2022/12/14 10:13:12;;;;;;;14.63;9.83;;;;;;;;;;5051530;28;20611;-78
2022/12/14 10:15:41;;;;;;;13.83;10.30;;;;;;;;;;5051460;28;20233;-78
2022/12/14 10:18:17;;;;;;;14.63;10.10;;;;;;;;;;5050525;28;20210;-78
2022/12/14 10:20:49;;;;;;;13.03;9.37;;;;;;;;;;5051477;28;20244;-78
2022/12/14 10:23:19;;;;;;;15.10;9.67;;;;;;;;;;5051518;28;20702;-78
2022/12/14 10:25:47;;;;;;;15.30;10.20;;;;;;;;;;5051506;28;20244;-77
2022/12/14 10:28:16;;;;;;;16.23;10.67;;;;;;;;;;5051572;28;20213;-77
2022/12/14 10:30:44;;;;;;;15.80;11.03;;;;;;;;;;5051547;28;20246;-77
2022/12/14 10:33:14;;;;;;;18.43;10.37;;;;;;;;;;5051511;28;20213;-78
2022/12/14 10:35:44;;;;;;;13.43;10.10;;;;;;;;;;5051253;28;20230;-77
2022/12/14 10:38:18;;;;;;;14.17;9.50;;;;;;;;;;5057052;28;20207;-77
2022/12/14 10:40:48;;;;;;;12.00;9.00;;;;;;;;;;5059474;28;20237;-78
2022/12/14 10:43:23;;;;;;;13.73;9.43;;;;;;;;;;5052365;28;20234;-78
2022/12/14 10:45:56;;;;;;;13.17;8.87;;;;;;;;;;5062021;28;20251;-78
2022/12/14 10:48:32;;;;;;;16.80;9.57;;;;;;;;;;5071711;28;20213;-78
2022/12/14 10:51:01;;;;;;;15.80;10.07;;;;;;;;;;5070760;28;20233;-78
2022/12/14 10:53:33;;;;;;;15.83;9.83;;;;;;;;;;5071060;28;20201;-78
2022/12/14 10:56:01;;;;;;;13.30;9.77;;;;;;;;;;5070841;28;20601;-78
2022/12/14 10:58:28;;;;;;;17.47;9.73;;;;;;;;;;5070688;28;20260;-78
2022/12/14 11:00:55;;;;;;;15.27;9.70;;;;;;;;;;5070760;28;20241;-77
2022/12/14 11:03:23;;;;;;;12.97;9.60;;;;;;;;;;5055901;28;20599;-78
2022/12/14 11:05:55;;;;;;;14.80;9.73;;;;;;;;;;5050643;28;20326;-77
2022/12/14 11:08:41;;;;;;;15.37;9.80;;;;;;;;;;5050718;28;20218;-78
2022/12/14 11:11:09;;;;;;;17.83;10.17;;;;;;;;;;5050306;28;20246;-78
2022/12/14 11:13:36;;;;;;;19.77;10.67;;;;;;;;;;5049615;28;20207;-78
2022/12/14 11:16:17;;;;;;;14.13;9.47;;;;;;;;;;5050016;28;20261;-78
2022/12/14 11:18:45;;;;;;;15.70;9.73;;;;;;;;;;5050611;28;20229;-78
2022/12/14 11:21:15;;;;;;;14.00;9.93;;;;;;;;;;5050171;28;20229;-78
2022/12/14 11:23:44;;;;;;;16.27;10.47;;;;;;;;;;5050753;28;20211;-78
2022/12/14 11:26:14;;;;;;;14.10;9.80;;;;;;;;;;5050205;28;20694;-79
2022/12/14 11:28:46;;;;;;;16.20;10.70;;;;;;;;;;5050901;28;20238;-78
2022/12/14 11:31:14;;;;;;;14.20;10.07;;;;;;;;;;5054203;28;20243;-78
2022/12/14 11:33:45;;;;;;;17.93;10.90;;;;;;;;;;5054561;28;20578;-78
2022/12/14 11:36:24;;;;;;;16.03;10.33;;;;;;;;;;5054031;28;20245;-78
2022/12/14 11:38:56;;;;;;;14.70;9.97;;;;;;;;;;5054709;28;20717;-79
2022/12/14 11:41:23;;;;;;;15.23;10.07;;;;;;;;;;5054071;28;20253;-79
2022/12/14 11:44:01;;;;;;;12.27;9.20;;;;;;;;;;5054745;28;20218;-78
2022/12/14 11:46:40;;;;;;;14.83;10.00;;;;;;;;;;5053965;28;20265;-79
2022/12/14 11:49:18;;;;;;;14.90;9.60;;;;;;;;;;5054030;28;20225;-79
2022/12/14 11:51:54;;;;;;;18.87;11.63;;;;;;;;;;5053924;28;20230;-79
2022/12/14 11:54:22;;;;;;;13.27;10.53;;;;;;;;;;5054438;28;20218;-79
2022/12/14 11:56:50;;;;;;;16.93;10.10;;;;;;;;;;5053937;28;20745;-79
2022/12/14 11:59:18;;;;;;;14.40;10.40;;;;;;;;;;5053884;28;20228;-79
2022/12/14 12:01:45;;;;;;;17.13;10.77;;;;;;;;;;5053624;28;20241;-79
2022/12/14 12:04:15;;;;;;;12.57;9.07;;;;;;;;;;5053803;28;20204;-79
2022/12/14 12:06:43;;;;;;;14.40;9.93;;;;;;;;;;5053771;28;20232;-79
2022/12/14 12:09:26;;;;;;;15.97;10.67;;;;;;;;;;5053440;28;20360;-79
2022/12/14 12:11:55;;;;;;;13.50;9.37;;;;;;;;;;5053475;28;20242;-79
2022/12/14 12:14:25;;;;;;;13.33;10.20;;;;;;;;;;5053656;28;20220;-79
2022/12/14 12:16:52;;;;;;;21.40;10.77;;;;;;;;;;5053617;28;20261;-79
2022/12/14 12:19:22;;;;;;;18.07;11.07;;;;;;;;;;5053582;28;20237;-79
2022/12/14 12:21:49;;;;;;;15.53;9.60;;;;;;;;;;5053383;28;20620;-79
2022/12/14 12:24:19;;;;;;;17.10;11.63;;;;;;;;;;5053708;28;20210;-79
2022/12/14 12:26:47;;;;;;;20.27;10.87;;;;;;;;;;5052658;28;20696;-79
2022/12/14 12:29:17;;;;;;;17.57;10.50;;;;;;;;;;5053299;28;20227;-79
2022/12/14 12:31:47;;;;;;;14.37;10.93;;;;;;;;;;5052765;28;20236;-79
2022/12/14 12:34:17;;;;;;;18.43;10.87;;;;;;;;;;5053654;28;20210;-79
2022/12/14 12:36:45;;;;;;;16.53;11.50;;;;;;;;;;5053092;28;20246;-79
2022/12/14 12:39:15;;;;;;;14.80;11.17;;;;;;;;;;5053147;28;20230;-79
2022/12/14 12:41:47;;;;;;;14.07;10.33;;;;;;;;;;5051918;28;20680;-79
2022/12/14 12:44:21;;;;;;;16.03;11.50;;;;;;;;;;5052476;28;20207;-79
2022/12/14 12:46:54;;;;;;;19.30;11.33;;;;;;;;;;5052023;28;20236;-78
2022/12/14 12:49:21;;;;;;;20.00;13.30;;;;;;;;;;5052792;28;20314;-79
2022/12/14 12:51:53;;;;;;;23.93;13.20;;;;;;;;;;5052069;28;20293;-79
2022/12/14 12:54:23;;;;;;;20.03;12.50;;;;;;;;;;5051164;28;20285;-78
2022/12/14 12:56:51;;;;;;;20.67;14.00;;;;;;;;;;5052639;28;20235;-79
2022/12/14 12:59:20;;;;;;;19.23;12.47;;;;;;;;;;5052724;28;20239;-79
2022/12/14 13:01:49;;;;;;;23.37;12.07;;;;;;;;;;5052413;28;20719;-79
2022/12/14 13:04:21;;;;;;;21.97;12.30;;;;;;;;;;5052832;28;20208;-79
2022/12/14 13:06:50;;;;;;;20.70;12.57;;;;;;;;;;5052589;28;20235;-79
2022/12/14 13:09:19;;;;;;;17.53;11.80;;;;;;;;;;5053020;28;20569;-79
2022/12/14 13:11:47;;;;;;;16.50;10.73;;;;;;;;;;5052287;28;20880;-79
2022/12/14 13:14:20;;;;;;;17.87;10.97;;;;;;;;;;5052792;28;20208;-79
2022/12/14 13:16:49;;;;;;;14.50;10.33;;;;;;;;;;5052306;28;20230;-79
2022/12/14 13:19:19;;;;;;;17.67;12.33;;;;;;;;;;5046553;28;20592;-79
2022/12/14 13:21:47;;;;;;;16.40;11.10;;;;;;;;;;5052172;28;20319;-79
2022/12/14 13:24:17;;;;;;;18.37;11.20;;;;;;;;;;5052331;28;20237;-79
2022/12/14 13:26:58;;;;;;;15.17;11.43;;;;;;;;;;5052444;28;20244;-79
2022/12/14 13:29:34;;;;;;;14.63;11.10;;;;;;;;;;5052272;28;20884;-79
2022/12/14 13:32:05;;;;;;;15.57;10.57;;;;;;;;;;5050894;28;20243;-79
2022/12/14 13:34:36;;;;;;;17.90;10.50;;;;;;;;;;5052777;28;20222;-79
2022/12/14 13:37:33;;;;;;;14.07;10.30;;;;;;;;;;5051890;28;20245;-79
2022/12/14 13:40:21;;;;;;;18.17;11.73;;;;;;;;;;5051810;28;20233;-79
2022/12/14 13:42:52;;;;;;;14.53;10.33;;;;;;;;;;5052090;28;20241;-79
2022/12/14 13:45:20;;;;;;;14.50;10.50;;;;;;;;;;5051678;28;20218;-79
2022/12/14 13:47:52;;;;;;;14.23;10.67;;;;;;;;;;5051968;28;20592;-79
2022/12/14 13:50:23;;;;;;;14.40;9.20;;;;;;;;;;5051477;28;20236;-79
2022/12/14 13:52:50;;;;;;;15.70;10.13;;;;;;;;;;5051124;28;20223;-80
2022/12/14 13:55:26;;;;;;;13.97;10.17;;;;;;;;;;5050786;28;20687;-81
2022/12/14 13:57:53;;;;;;;16.37;10.43;;;;;;;;;;5047152;28;20259;-79
2022/12/14 14:00:50;;;;;;;14.97;9.73;;;;;;;;;;5048849;28;20242;-79
2022/12/14 14:03:32;;;;;;;14.47;9.93;;;;;;;;;;5050561;28;20217;-79
2022/12/14 14:06:02;;;;;;;15.03;9.97;;;;;;;;;;5049727;28;20595;-84
2022/12/14 14:08:34;;;;;;;20.87;11.53;;;;;;;;;;5050785;28;20202;-80
2022/12/14 14:11:34;;;;;;;17.87;11.10;;;;;;;;;;5050132;28;20750;-80
2022/12/14 14:14:11;;;;;;;15.43;10.23;;;;;;;;;;5051105;28;20207;-80
2022/12/14 14:16:39;;;;;;;17.83;10.50;;;;;;;;;;5048057;28;20229;-79
2022/12/14 14:19:16;;;;;;;14.63;10.40;;;;;;;;;;5047230;28;20228;-79
2022/12/14 14:21:44;;;;;;;21.13;10.90;;;;;;;;;;5041875;28;20922;-79
2022/12/14 14:24:22;;;;;;;14.83;10.20;;;;;;;;;;5050847;28;20252;-79
2022/12/14 14:27:00;;;;;;;13.03;9.93;;;;;;;;;;5032574;28;20236;-79
2022/12/14 14:29:29;;;;;;;14.57;10.50;;;;;;;;;;5045726;28;20245;-79
2022/12/14 14:31:58;;;;;;;13.80;10.80;;;;;;;;;;5041423;28;20232;-79
2022/12/14 14:34:32;;;;;;;14.80;10.60;;;;;;;;;;5042877;28;20207;-79
2022/12/14 14:37:00;;;;;;;14.60;10.47;;;;;;;;;;5050826;28;20593;-79
2022/12/14 14:39:31;;;;;;;12.93;9.37;;;;;;;;;;5048715;28;20311;-79
2022/12/14 14:41:58;;;;;;;15.27;10.80;;;;;;;;;;5070671;28;20617;-80
2022/12/14 14:44:29;;;;;;;16.37;10.17;;;;;;;;;;5052151;28;20252;-79
2022/12/14 14:46:58;;;;;;;13.80;9.73;;;;;;;;;;5050389;28;20686;-80
2022/12/14 14:49:26;;;;;;;14.50;10.10;;;;;;;;;;5050730;28;20237;-78
2022/12/14 14:51:53;;;;;;;18.40;9.80;;;;;;;;;;5050453;28;20237;-78
2022/12/14 14:54:27;;;;;;;14.17;9.70;;;;;;;;;;5067369;28;20251;-79